Jump to content

  •  

AMERICAN AIRLINES FLIGHT AA2295 FLOWN ON 11-30-2017 BY CAPTAIN JIM BOERMAN

Pilot StatsCaptain Jim Boerman (LDP136) • 4,686.4 total hours • 1,423 total flights [View Logbook]
FLIGHT DETAILS
StatusReceived and approved on 2017-11-30 at 12:11:10
Origin AirportMiami Intl (KMIA) • Miami, Florida, United States (8 feet MSL)
Filed Flight PlanKMIA VKZ BR53V RAJAY BR55V PRUNE A555 HINZY BR53V ZQA A555 TUUNA G633 COY R888 MODUX UR888 PPR UA312 FOF TLPL
Destination AirportHewanorra Intl (TLPL) • Vieuxfort, Saint Lucia (14 feet MSL)
Alternate AirportLe Lamentin (TFFF) • Ft De France, Martinique (16 feet MSL)
AirlineAmerican Airlines
AircraftBoeing 757-200 | Winglets (75W / B757-200)
FS Aircraft UsedQWSim Boeing 757-200WL AA N611AM 2013 QWHDT
Cruising AltitudeFL330
Distance Flown1,308 nautical miles
Passengers Onboard75 passengers (40.32% full)
DEPARTURE DETAILS
Time Out09:10:28
Taxi Data191,523 lbs total with 29,312 lbs of fuel onboard
Takeoff Data09:22:13 (12 minutes after leaving gate/ramp) • 190,060 lbs total • 7° pitch at 170 knots
Departure METARKMIA 301253Z 36004KT 10SM FEW025 FEW038 24/20 A3007 RMK AO2 SLP182 T02390200 $
ARRIVAL DETAILS
Landing Data13:15:09 • 168,238 lbs total • 3° pitch doing 129 knots at a rate of -224.53 feet/minute with 5,492 lbs of fuel onboard
Time In13:20:41 (6 minutes after landing)
Ramp Weight167,702 lbs total
Total Fuel Used23,820 lbs
Total Block Time03:05:42 (3.1 hours) while 17 minutes were spent on the ground
Arrival METARTLPL 301700Z 08015KT 9999 -SHRA FEW009 BKN020 29/25 Q1011 TEMPO SHRA
MISCELLANEOUS DETAILS
LiveDISPATCH Version4.8.3.1
FS Version
FSUIPC Version4.93
OS VersionWindows 7 32-bit
Screen Resolution1920 x 1080
Pilot's CommentsNo Comments Reported
FLIGHT MAP